createdAt,value
2022-12-26T00:00:01.344Z,1001.2357772189521
2022-12-26T00:15:02.006Z,1001.0946996742528
2022-12-26T00:30:01.719Z,1000.9587657363896
2022-12-26T00:45:01.368Z,1001.1288718304343
2022-12-26T01:00:02.080Z,1001.0723503161331
2022-12-26T01:15:01.729Z,1001.2407380452883
2022-12-26T01:30:01.388Z,1001.3332119005986
2022-12-26T01:45:02.029Z,1001.4491512491842
2022-12-26T02:00:01.677Z,1001.5851239746511
2022-12-26T02:15:01.325Z,1001.5663447949706
2022-12-26T02:30:01.994Z,1001.3763972977946
2022-12-26T02:45:01.655Z,1001.6558506841869
2022-12-26T03:00:01.312Z,1001.6830496228871
2022-12-26T03:15:01.945Z,1001.7686535397385
2022-12-26T03:30:01.674Z,1001.6854392037884
2022-12-26T03:45:01.370Z,1001.8471826350705
2022-12-26T04:00:02.142Z,1001.7535491059472
2022-12-26T04:15:01.854Z,1001.7873934910467
2022-12-26T04:30:01.604Z,1001.832403437319
2022-12-26T04:45:01.394Z,1001.9731766393647
2022-12-26T05:00:02.019Z,1001.8531450817293
2022-12-26T05:15:01.675Z,1002.2583083331758
2022-12-26T05:30:01.703Z,1002.1940361377851
2022-12-26T05:45:01.409Z,1002.2755081266519
2022-12-26T06:00:02.046Z,1002.3104382034743
2022-12-26T06:15:01.746Z,1002.2671824889329
2022-12-26T06:30:01.447Z,1002.2936951435207
2022-12-26T06:45:01.113Z,1002.0605472217946
2022-12-26T07:00:01.920Z,1002.0860446334486
2022-12-26T07:15:02.182Z,1002.2246759927177
2022-12-26T07:30:02.003Z,1002.5273036880945
2022-12-26T07:45:01.717Z,1002.6112946532546
2022-12-26T08:00:01.322Z,1002.5007973242178
2022-12-26T08:15:02.070Z,1002.5898701276592
2022-12-26T08:30:01.987Z,1002.6549210934531
2022-12-26T08:45:01.733Z,1002.8280891812666
2022-12-26T09:00:02.647Z,1002.9212962678363
2022-12-26T09:15:02.322Z,1002.7017893969905
2022-12-26T09:30:02.002Z,1002.7814892805089
2022-12-26T09:45:01.660Z,1002.8871629373238
2022-12-26T10:00:02.324Z,1002.9353433598172
2022-12-26T10:15:01.988Z,1002.7860147411343
2022-12-26T10:30:01.680Z,1002.9021110582963
2022-12-26T10:45:02.333Z,1002.8900822418395
2022-12-26T11:00:01.982Z,1002.9368526755346
2022-12-26T11:15:01.671Z,1002.8006639173276
2022-12-26T11:30:02.370Z,1002.7311087056092
2022-12-26T11:45:02.075Z,1002.757679605952
2022-12-26T12:00:01.742Z,1002.9732500921413
2022-12-26T12:15:02.396Z,1003.1465172037462
2022-12-26T12:30:02.045Z,1003.0136885966441
2022-12-26T12:45:01.730Z,1003.715104958804
2022-12-26T13:00:02.377Z,1004.2094693426476
2022-12-26T13:15:02.056Z,1004.2982833891925
2022-12-26T13:30:01.772Z,1004.6165351532957
2022-12-26T13:45:01.416Z,1004.8148096154608
2022-12-26T14:00:02.062Z,1005.080682316555
2022-12-26T14:15:01.749Z,1005.2881737110987
2022-12-26T14:30:01.435Z,1005.3725166296359
2022-12-26T14:45:02.107Z,1005.4000301660219
2022-12-26T15:00:03.594Z,1005.486930954693
2022-12-26T15:15:01.701Z,1005.8590689919948
2022-12-26T15:30:01.429Z,1006.0443613970901
2022-12-26T15:45:02.101Z,1006.3281187128247
2022-12-26T16:00:01.927Z,1006.715095084384
2022-12-26T16:15:01.735Z,1006.8741565953189
2022-12-26T16:30:06.568Z,1007.0173082927944
2022-12-26T16:45:01.658Z,1007.1263960676758
2022-12-26T17:00:02.547Z,1007.1541668289544
2022-12-26T17:15:02.199Z,1007.3341306435458
2022-12-26T17:30:01.895Z,1007.5416707494064
2022-12-26T17:45:02.561Z,1007.9921136122483
2022-12-26T18:00:02.242Z,1008.1053772959916
2022-12-26T18:15:02.757Z,1008.1663474327617
2022-12-26T18:30:01.730Z,1008.376512667155
2022-12-26T18:45:02.411Z,1008.4489335462813
2022-12-26T19:00:02.063Z,1008.7166461356081
2022-12-26T19:15:01.693Z,1008.8802162938117
2022-12-26T19:30:02.512Z,1009.2017200054703
2022-12-26T19:45:02.334Z,1009.4165252999904
2022-12-26T20:00:01.984Z,1009.4960075474112
2022-12-26T20:15:01.622Z,1009.7942219368153
2022-12-26T20:30:02.274Z,1009.8669162893252
2022-12-26T20:45:01.894Z,1010.0738761229036
2022-12-26T21:00:01.513Z,1010.2446237861232
2022-12-26T21:15:02.163Z,1010.4354759890928
2022-12-26T21:30:01.807Z,1010.363167399326
2022-12-26T21:45:01.468Z,1010.5645224587029
2022-12-26T22:00:02.120Z,1010.5039528626497
2022-12-26T22:15:01.800Z,1010.4431155081476
2022-12-26T22:30:01.493Z,1010.6996794491699
2022-12-26T22:45:02.187Z,1010.8651690122325
2022-12-26T23:00:09.513Z,1011.0679229733453
2022-12-26T23:15:02.085Z,1011.0721814776279
2022-12-26T23:30:01.743Z,1011.1175723725308
2022-12-26T23:45:01.389Z,1011.3065284116662
